sensor_id;sensor_type;location;lat;lon;timestamp;pressure;altitude;pressure_sealevel;temperature;humidity
43621;BME280;29213;50.770;7.298;2023-01-31T00:00:50;101762.31;;;4.47;58.45
43621;BME280;29213;50.770;7.298;2023-01-31T00:03:16;101735.28;;;4.14;58.23
43621;BME280;29213;50.770;7.298;2023-01-31T00:05:41;101703.81;;;3.97;57.80
43621;BME280;29213;50.770;7.298;2023-01-31T00:08:06;101684.03;;;3.89;57.85
43621;BME280;29213;50.770;7.298;2023-01-31T00:10:32;101700.09;;;3.70;58.34
43621;BME280;29213;50.770;7.298;2023-01-31T00:12:57;101731.94;;;3.96;58.56
43621;BME280;29213;50.770;7.298;2023-01-31T00:15:23;101763.44;;;4.28;58.36
43621;BME280;29213;50.770;7.298;2023-01-31T00:17:48;101769.84;;;4.39;58.15
43621;BME280;29213;50.770;7.298;2023-01-31T00:20:14;101772.22;;;4.29;58.01
43621;BME280;29213;50.770;7.298;2023-01-31T00:22:39;101774.84;;;4.29;58.23
43621;BME280;29213;50.770;7.298;2023-01-31T00:25:05;101775.47;;;4.18;58.00
43621;BME280;29213;50.770;7.298;2023-01-31T00:27:30;101769.16;;;4.06;58.37
43621;BME280;29213;50.770;7.298;2023-01-31T00:29:56;101771.41;;;3.98;58.52
43621;BME280;29213;50.770;7.298;2023-01-31T00:32:21;101751.22;;;3.82;58.51
43621;BME280;29213;50.770;7.298;2023-01-31T00:34:47;101711.34;;;3.58;58.53
43621;BME280;29213;50.770;7.298;2023-01-31T00:37:12;101770.13;;;3.74;59.08
43621;BME280;29213;50.770;7.298;2023-01-31T00:39:38;101714.44;;;3.50;58.38
43621;BME280;29213;50.770;7.298;2023-01-31T00:42:03;101696.78;;;3.36;58.38
43621;BME280;29213;50.770;7.298;2023-01-31T00:44:29;101768.28;;;3.91;58.76
43621;BME280;29213;50.770;7.298;2023-01-31T00:46:54;101755.38;;;3.86;58.17
43621;BME280;29213;50.770;7.298;2023-01-31T00:49:19;101776.69;;;3.98;57.99
43621;BME280;29213;50.770;7.298;2023-01-31T00:51:45;101698.53;;;3.52;57.89
43621;BME280;29213;50.770;7.298;2023-01-31T00:54:10;101769.91;;;4.08;58.35
43621;BME280;29213;50.770;7.298;2023-01-31T00:56:36;101724.78;;;3.84;57.88
43621;BME280;29213;50.770;7.298;2023-01-31T00:59:03;101746.56;;;4.02;57.53
43621;BME280;29213;50.770;7.298;2023-01-31T01:01:32;101777.63;;;4.11;57.93
43621;BME280;29213;50.770;7.298;2023-01-31T01:03:58;101765.75;;;4.04;57.73
43621;BME280;29213;50.770;7.298;2023-01-31T01:06:24;101771.25;;;4.15;57.54
43621;BME280;29213;50.770;7.298;2023-01-31T01:08:50;101658.78;;;3.56;57.70
43621;BME280;29213;50.770;7.298;2023-01-31T01:11:25;101762.97;;;4.22;57.51
43621;BME280;29213;50.770;7.298;2023-01-31T01:13:51;101761.34;;;4.05;57.59
43621;BME280;29213;50.770;7.298;2023-01-31T01:16:23;101744.97;;;3.99;57.83
43621;BME280;29213;50.770;7.298;2023-01-31T01:18:49;101689.97;;;3.48;57.71
43621;BME280;29213;50.770;7.298;2023-01-31T01:21:21;101765.59;;;4.07;57.84
43621;BME280;29213;50.770;7.298;2023-01-31T01:23:47;101754.66;;;3.99;57.78
43621;BME280;29213;50.770;7.298;2023-01-31T01:26:24;101774.91;;;4.13;57.31
43621;BME280;29213;50.770;7.298;2023-01-31T01:28:51;101778.56;;;4.10;57.50
43621;BME280;29213;50.770;7.298;2023-01-31T01:31:18;101721.19;;;3.70;57.21
43621;BME280;29213;50.770;7.298;2023-01-31T01:33:44;101776.41;;;4.02;57.35
43621;BME280;29213;50.770;7.298;2023-01-31T01:36:11;101771.94;;;3.88;57.75
43621;BME280;29213;50.770;7.298;2023-01-31T01:38:39;101774.41;;;3.92;57.08
43621;BME280;29213;50.770;7.298;2023-01-31T01:41:05;101763.38;;;3.85;57.07
43621;BME280;29213;50.770;7.298;2023-01-31T01:43:57;101764.97;;;3.87;56.76
43621;BME280;29213;50.770;7.298;2023-01-31T01:46:27;101775.81;;;3.97;56.98
43621;BME280;29213;50.770;7.298;2023-01-31T01:48:59;101728.88;;;3.59;57.20
43621;BME280;29213;50.770;7.298;2023-01-31T01:51:26;101744.22;;;3.67;57.00
43621;BME280;29213;50.770;7.298;2023-01-31T01:53:55;101711.25;;;3.45;56.75
43621;BME280;29213;50.770;7.298;2023-01-31T01:56:26;101772.31;;;3.82;56.47
43621;BME280;29213;50.770;7.298;2023-01-31T01:59:35;101774.69;;;3.87;57.16
43621;BME280;29213;50.770;7.298;2023-01-31T02:02:02;101754.81;;;3.81;57.06
43621;BME280;29213;50.770;7.298;2023-01-31T02:04:31;101734.66;;;3.80;56.94
43621;BME280;29213;50.770;7.298;2023-01-31T02:06:59;101694.13;;;3.52;56.56
43621;BME280;29213;50.770;7.298;2023-01-31T02:09:43;101763.44;;;3.83;56.52
43621;BME280;29213;50.770;7.298;2023-01-31T02:12:11;101767.16;;;3.95;56.42
43621;BME280;29213;50.770;7.298;2023-01-31T02:14:37;101735.41;;;3.68;56.49
43621;BME280;29213;50.770;7.298;2023-01-31T02:17:03;101741.16;;;3.89;56.60
43621;BME280;29213;50.770;7.298;2023-01-31T02:19:51;101695.75;;;3.69;56.22
43621;BME280;29213;50.770;7.298;2023-01-31T02:22:32;101715.56;;;3.77;56.10
43621;BME280;29213;50.770;7.298;2023-01-31T02:28:05;101612.44;;;3.23;55.42
43621;BME280;29213;50.770;7.298;2023-01-31T02:30:49;101683.97;;;3.60;55.52
43621;BME280;29213;50.770;7.298;2023-01-31T02:33:43;101752.47;;;3.91;55.77
43621;BME280;29213;50.770;7.298;2023-01-31T02:41:43;101755.75;;;3.95;55.64
43621;BME280;29213;50.770;7.298;2023-01-31T02:44:30;101736.28;;;3.83;55.77
43621;BME280;29213;50.770;7.298;2023-01-31T02:49:59;101758.44;;;4.09;55.47
43621;BME280;29213;50.770;7.298;2023-01-31T02:52:34;101702.38;;;3.77;55.49
43621;BME280;29213;50.770;7.298;2023-01-31T02:55:15;101755.72;;;4.11;55.18
43621;BME280;29213;50.770;7.298;2023-01-31T02:58:03;101734.88;;;4.06;54.89
43621;BME280;29213;50.770;7.298;2023-01-31T03:00:33;101746.19;;;4.08;55.23
43621;BME280;29213;50.770;7.298;2023-01-31T03:02:59;101768.06;;;4.25;55.17
43621;BME280;29213;50.770;7.298;2023-01-31T03:05:25;101737.78;;;4.01;54.94
43621;BME280;29213;50.770;7.298;2023-01-31T03:07:53;101761.56;;;4.16;55.01
43621;BME280;29213;50.770;7.298;2023-01-31T03:16:04;101774.00;;;4.28;54.96
43621;BME280;29213;50.770;7.298;2023-01-31T03:19:00;101771.44;;;4.27;54.88
43621;BME280;29213;50.770;7.298;2023-01-31T03:21:36;101752.97;;;4.27;55.00
43621;BME280;29213;50.770;7.298;2023-01-31T03:24:04;101778.72;;;4.38;54.78
43621;BME280;29213;50.770;7.298;2023-01-31T03:26:30;101704.28;;;3.89;55.32
43621;BME280;29213;50.770;7.298;2023-01-31T03:28:58;101721.03;;;4.02;55.59
43621;BME280;29213;50.770;7.298;2023-01-31T03:31:32;101779.75;;;4.35;55.86
43621;BME280;29213;50.770;7.298;2023-01-31T03:34:04;101718.31;;;3.89;55.62
43621;BME280;29213;50.770;7.298;2023-01-31T03:45:03;101769.19;;;4.21;55.96
43621;BME280;29213;50.770;7.298;2023-01-31T03:47:40;101761.81;;;4.11;56.54
43621;BME280;29213;50.770;7.298;2023-01-31T03:50:38;101758.50;;;4.08;56.22
43621;BME280;29213;50.770;7.298;2023-01-31T03:53:33;101673.16;;;3.51;56.43
43621;BME280;29213;50.770;7.298;2023-01-31T03:56:17;101753.13;;;3.95;56.86
43621;BME280;29213;50.770;7.298;2023-01-31T03:58:49;101727.78;;;3.78;57.01
43621;BME280;29213;50.770;7.298;2023-01-31T04:01:17;101702.03;;;3.52;56.63
43621;BME280;29213;50.770;7.298;2023-01-31T04:03:53;101716.09;;;3.67;57.01
43621;BME280;29213;50.770;7.298;2023-01-31T04:06:20;101699.91;;;3.59;57.01
43621;BME280;29213;50.770;7.298;2023-01-31T04:08:45;101696.78;;;3.52;56.75
43621;BME280;29213;50.770;7.298;2023-01-31T04:11:12;101719.66;;;3.66;57.38
43621;BME280;29213;50.770;7.298;2023-01-31T04:13:38;101711.09;;;3.62;56.98
43621;BME280;29213;50.770;7.298;2023-01-31T04:16:05;101715.59;;;3.60;57.41
43621;BME280;29213;50.770;7.298;2023-01-31T04:18:31;101754.06;;;3.79;57.42
43621;BME280;29213;50.770;7.298;2023-01-31T04:20:56;101664.63;;;3.31;57.48
43621;BME280;29213;50.770;7.298;2023-01-31T04:23:22;101727.66;;;3.65;57.72
43621;BME280;29213;50.770;7.298;2023-01-31T04:25:49;101719.09;;;3.61;57.47
43621;BME280;29213;50.770;7.298;2023-01-31T04:28:14;101673.66;;;3.27;57.77
43621;BME280;29213;50.770;7.298;2023-01-31T04:30:39;101680.69;;;3.26;57.80
43621;BME280;29213;50.770;7.298;2023-01-31T04:33:05;101667.72;;;3.23;57.56
43621;BME280;29213;50.770;7.298;2023-01-31T04:35:30;101716.31;;;3.48;57.72
43621;BME280;29213;50.770;7.298;2023-01-31T04:37:56;101675.03;;;3.18;57.54
43621;BME280;29213;50.770;7.298;2023-01-31T04:40:21;101703.78;;;3.37;57.58
43621;BME280;29213;50.770;7.298;2023-01-31T04:42:49;101681.72;;;3.24;58.07
43621;BME280;29213;50.770;7.298;2023-01-31T04:45:14;101730.16;;;3.52;57.80
43621;BME280;29213;50.770;7.298;2023-01-31T04:47:40;101729.47;;;3.48;57.53
43621;BME280;29213;50.770;7.298;2023-01-31T04:50:06;101641.38;;;2.92;57.76
43621;BME280;29213;50.770;7.298;2023-01-31T04:52:32;101715.94;;;3.40;58.01
43621;BME280;29213;50.770;7.298;2023-01-31T04:54:57;101609.13;;;2.73;57.61
43621;BME280;29213;50.770;7.298;2023-01-31T04:57:23;101715.34;;;3.34;57.38
43621;BME280;29213;50.770;7.298;2023-01-31T04:59:48;101730.56;;;3.29;57.77
43621;BME280;29213;50.770;7.298;2023-01-31T05:02:14;101721.88;;;3.27;57.97
43621;BME280;29213;50.770;7.298;2023-01-31T05:04:40;101687.19;;;3.04;58.08
43621;BME280;29213;50.770;7.298;2023-01-31T05:07:05;101697.34;;;3.11;57.81
43621;BME280;29213;50.770;7.298;2023-01-31T05:09:31;101597.25;;;2.49;57.98
43621;BME280;29213;50.770;7.298;2023-01-31T05:11:56;101716.22;;;3.19;58.35
43621;BME280;29213;50.770;7.298;2023-01-31T05:14:21;101711.88;;;3.18;57.76
43621;BME280;29213;50.770;7.298;2023-01-31T05:16:47;101649.03;;;2.81;58.11
43621;BME280;29213;50.770;7.298;2023-01-31T05:19:15;101704.59;;;3.07;58.20
43621;BME280;29213;50.770;7.298;2023-01-31T05:21:41;101617.91;;;2.41;57.95
43621;BME280;29213;50.770;7.298;2023-01-31T05:24:23;101654.63;;;2.75;58.43
43621;BME280;29213;50.770;7.298;2023-01-31T05:26:49;101702.03;;;3.05;58.44
43621;BME280;29213;50.770;7.298;2023-01-31T05:29:17;101702.13;;;3.04;58.14
43621;BME280;29213;50.770;7.298;2023-01-31T05:31:43;101628.31;;;2.59;58.52
43621;BME280;29213;50.770;7.298;2023-01-31T05:34:09;101703.31;;;2.98;58.05
43621;BME280;29213;50.770;7.298;2023-01-31T05:36:40;101668.03;;;2.70;58.07
43621;BME280;29213;50.770;7.298;2023-01-31T05:39:05;101700.69;;;2.98;58.36
43621;BME280;29213;50.770;7.298;2023-01-31T05:41:31;101676.09;;;2.83;58.02
43621;BME280;29213;50.770;7.298;2023-01-31T05:43:56;101619.34;;;2.31;57.54
43621;BME280;29213;50.770;7.298;2023-01-31T05:46:22;101613.47;;;2.25;57.99
43621;BME280;29213;50.770;7.298;2023-01-31T05:48:47;101576.16;;;2.03;58.16
43621;BME280;29213;50.770;7.298;2023-01-31T05:51:12;101681.72;;;2.61;58.15
43621;BME280;29213;50.770;7.298;2023-01-31T05:53:38;101648.50;;;2.42;58.49
43621;BME280;29213;50.770;7.298;2023-01-31T05:56:03;101704.00;;;2.86;58.05
43621;BME280;29213;50.770;7.298;2023-01-31T05:58:29;101622.28;;;2.40;58.51
43621;BME280;29213;50.770;7.298;2023-01-31T06:00:54;101606.94;;;2.33;58.00
43621;BME280;29213;50.770;7.298;2023-01-31T06:03:20;101676.50;;;2.75;58.17
43621;BME280;29213;50.770;7.298;2023-01-31T06:05:46;101666.00;;;2.59;58.02
43621;BME280;29213;50.770;7.298;2023-01-31T06:08:11;101613.06;;;2.33;58.44
43621;BME280;29213;50.770;7.298;2023-01-31T06:10:38;101651.59;;;2.50;58.42
43621;BME280;29213;50.770;7.298;2023-01-31T06:13:03;101660.06;;;2.55;58.75
43621;BME280;29213;50.770;7.298;2023-01-31T06:15:31;101652.41;;;2.51;58.31
43621;BME280;29213;50.770;7.298;2023-01-31T06:17:57;101693.84;;;2.79;58.74
43621;BME280;29213;50.770;7.298;2023-01-31T06:20:22;101654.13;;;2.68;58.66
43621;BME280;29213;50.770;7.298;2023-01-31T06:22:47;101584.63;;;2.24;58.11
43621;BME280;29213;50.770;7.298;2023-01-31T06:25:13;101696.38;;;2.81;57.68
43621;BME280;29213;50.770;7.298;2023-01-31T06:27:38;101693.91;;;2.78;58.06
43621;BME280;29213;50.770;7.298;2023-01-31T06:30:04;101635.69;;;2.36;58.32
43621;BME280;29213;50.770;7.298;2023-01-31T06:32:30;101688.41;;;2.66;58.20
43621;BME280;29213;50.770;7.298;2023-01-31T06:34:56;101659.72;;;2.62;58.23
43621;BME280;29213;50.770;7.298;2023-01-31T06:37:21;101601.00;;;2.29;58.21
43621;BME280;29213;50.770;7.298;2023-01-31T06:39:47;101680.09;;;2.74;58.15
43621;BME280;29213;50.770;7.298;2023-01-31T06:42:12;101586.16;;;2.12;58.44
43621;BME280;29213;50.770;7.298;2023-01-31T06:44:37;101686.44;;;2.70;57.95
43621;BME280;29213;50.770;7.298;2023-01-31T06:47:03;101653.09;;;2.54;58.06
43621;BME280;29213;50.770;7.298;2023-01-31T06:49:29;101655.47;;;2.59;57.99
43621;BME280;29213;50.770;7.298;2023-01-31T06:51:54;101647.50;;;2.61;58.15
43621;BME280;29213;50.770;7.298;2023-01-31T06:54:20;101681.63;;;2.78;57.39
43621;BME280;29213;50.770;7.298;2023-01-31T06:56:45;101597.97;;;2.37;58.20
43621;BME280;29213;50.770;7.298;2023-01-31T06:59:10;101643.75;;;2.65;57.67
43621;BME280;29213;50.770;7.298;2023-01-31T07:01:36;101612.63;;;2.41;58.18
43621;BME280;29213;50.770;7.298;2023-01-31T07:04:01;101623.91;;;2.59;58.05
43621;BME280;29213;50.770;7.298;2023-01-31T07:06:26;101617.66;;;2.62;57.81
43621;BME280;29213;50.770;7.298;2023-01-31T07:08:52;101625.53;;;2.62;57.71
43621;BME280;29213;50.770;7.298;2023-01-31T07:11:18;101689.06;;;3.02;57.89
43621;BME280;29213;50.770;7.298;2023-01-31T07:13:43;101688.19;;;3.02;57.04
43621;BME280;29213;50.770;7.298;2023-01-31T07:16:12;101614.41;;;2.57;57.67
43621;BME280;29213;50.770;7.298;2023-01-31T07:18:38;101647.41;;;2.78;57.21
43621;BME280;29213;50.770;7.298;2023-01-31T07:21:03;101686.81;;;3.27;66.32
43621;BME280;29213;50.770;7.298;2023-01-31T07:23:30;101688.56;;;4.16;63.28
43621;BME280;29213;50.770;7.298;2023-01-31T07:25:55;101627.91;;;4.16;60.81
43621;BME280;29213;50.770;7.298;2023-01-31T07:28:21;101621.69;;;4.74;59.45
43621;BME280;29213;50.770;7.298;2023-01-31T07:30:47;101647.59;;;5.22;56.18
43621;BME280;29213;50.770;7.298;2023-01-31T07:33:12;101682.69;;;5.25;53.91
43621;BME280;29213;50.770;7.298;2023-01-31T07:35:40;101672.47;;;4.78;54.90
43621;BME280;29213;50.770;7.298;2023-01-31T07:38:06;101624.31;;;4.32;52.44
43621;BME280;29213;50.770;7.298;2023-01-31T07:40:31;101568.72;;;3.79;53.91
43621;BME280;29213;50.770;7.298;2023-01-31T07:42:58;101666.91;;;4.26;54.67
43621;BME280;29213;50.770;7.298;2023-01-31T07:45:24;101684.78;;;4.35;54.94
43621;BME280;29213;50.770;7.298;2023-01-31T07:47:50;101617.47;;;3.86;54.92
43621;BME280;29213;50.770;7.298;2023-01-31T07:50:16;101620.88;;;3.88;55.13
43621;BME280;29213;50.770;7.298;2023-01-31T07:52:41;101643.19;;;3.97;54.64
43621;BME280;29213;50.770;7.298;2023-01-31T07:55:07;101638.09;;;3.94;55.11
43621;BME280;29213;50.770;7.298;2023-01-31T07:57:33;101609.44;;;3.44;54.51
43621;BME280;29213;50.770;7.298;2023-01-31T07:59:58;101655.03;;;3.75;55.38
43621;BME280;29213;50.770;7.298;2023-01-31T08:02:23;101556.44;;;3.19;55.46
43621;BME280;29213;50.770;7.298;2023-01-31T08:05:08;101662.09;;;3.89;55.92
43621;BME280;29213;50.770;7.298;2023-01-31T08:07:36;101654.75;;;3.94;55.65
43621;BME280;29213;50.770;7.298;2023-01-31T08:10:01;101615.09;;;3.67;54.85
43621;BME280;29213;50.770;7.298;2023-01-31T08:12:27;101637.44;;;3.75;55.21
43621;BME280;29213;50.770;7.298;2023-01-31T08:14:53;101537.34;;;3.16;54.67
43621;BME280;29213;50.770;7.298;2023-01-31T08:17:18;101604.16;;;3.44;55.42
43621;BME280;29213;50.770;7.298;2023-01-31T08:19:43;101547.16;;;3.14;55.80
43621;BME280;29213;50.770;7.298;2023-01-31T08:22:09;101538.22;;;3.16;55.27
43621;BME280;29213;50.770;7.298;2023-01-31T08:24:34;101619.16;;;3.72;55.49
43621;BME280;29213;50.770;7.298;2023-01-31T08:27:00;101597.22;;;3.72;55.33
43621;BME280;29213;50.770;7.298;2023-01-31T08:29:26;101610.22;;;3.75;55.18
43621;BME280;29213;50.770;7.298;2023-01-31T08:31:51;101633.84;;;3.91;55.39
43621;BME280;29213;50.770;7.298;2023-01-31T08:34:17;101607.13;;;3.68;55.06
43621;BME280;29213;50.770;7.298;2023-01-31T08:36:43;101599.78;;;3.59;53.95
43621;BME280;29213;50.770;7.298;2023-01-31T08:39:14;101676.78;;;4.08;55.28
43621;BME280;29213;50.770;7.298;2023-01-31T08:41:40;101679.25;;;4.11;54.39
43621;BME280;29213;50.770;7.298;2023-01-31T08:44:11;101676.50;;;3.98;54.70
43621;BME280;29213;50.770;7.298;2023-01-31T08:46:42;101666.91;;;3.97;54.96
43621;BME280;29213;50.770;7.298;2023-01-31T08:49:09;101671.34;;;4.11;55.29
43621;BME280;29213;50.770;7.298;2023-01-31T08:51:40;101662.31;;;4.15;54.87
43621;BME280;29213;50.770;7.298;2023-01-31T08:54:12;101656.72;;;4.20;55.25
43621;BME280;29213;50.770;7.298;2023-01-31T08:56:46;101661.91;;;4.21;55.20
43621;BME280;29213;50.770;7.298;2023-01-31T08:59:12;101670.19;;;4.29;54.74
43621;BME280;29213;50.770;7.298;2023-01-31T09:01:38;101665.56;;;4.33;54.89
43621;BME280;29213;50.770;7.298;2023-01-31T09:04:12;101653.59;;;4.42;54.27
43621;BME280;29213;50.770;7.298;2023-01-31T09:06:38;101666.38;;;4.48;54.59
43621;BME280;29213;50.770;7.298;2023-01-31T09:09:04;101669.13;;;4.47;54.39
43621;BME280;29213;50.770;7.298;2023-01-31T09:11:30;101665.56;;;4.48;54.65
43621;BME280;29213;50.770;7.298;2023-01-31T09:13:56;101674.19;;;4.50;54.69
43621;BME280;29213;50.770;7.298;2023-01-31T09:16:27;101685.34;;;4.55;54.24
43621;BME280;29213;50.770;7.298;2023-01-31T09:18:54;101678.94;;;4.59;53.84
43621;BME280;29213;50.770;7.298;2023-01-31T09:21:22;101666.28;;;4.50;54.15
43621;BME280;29213;50.770;7.298;2023-01-31T09:23:54;101659.81;;;4.55;54.51
43621;BME280;29213;50.770;7.298;2023-01-31T09:26:20;101657.09;;;4.57;54.29
43621;BME280;29213;50.770;7.298;2023-01-31T09:28:46;101649.53;;;4.65;54.28
43621;BME280;29213;50.770;7.298;2023-01-31T09:31:14;101644.53;;;4.61;54.41
43621;BME280;29213;50.770;7.298;2023-01-31T09:33:41;101643.94;;;4.70;54.40
43621;BME280;29213;50.770;7.298;2023-01-31T09:36:12;101650.56;;;4.63;54.49
43621;BME280;29213;50.770;7.298;2023-01-31T09:38:44;101640.66;;;4.66;54.46
43621;BME280;29213;50.770;7.298;2023-01-31T09:41:24;101636.97;;;4.69;54.35
43621;BME280;29213;50.770;7.298;2023-01-31T09:43:55;101569.22;;;4.27;54.25
43621;BME280;29213;50.770;7.298;2023-01-31T09:46:28;101577.38;;;4.37;54.30
43621;BME280;29213;50.770;7.298;2023-01-31T09:48:58;101589.03;;;4.48;54.77
43621;BME280;29213;50.770;7.298;2023-01-31T09:51:26;101512.22;;;3.97;54.31
43621;BME280;29213;50.770;7.298;2023-01-31T09:53:54;101610.88;;;4.50;55.06
43621;BME280;29213;50.770;7.298;2023-01-31T09:59:12;101562.50;;;4.36;54.96
43621;BME280;29213;50.770;7.298;2023-01-31T10:05:14;101616.56;;;4.58;55.35
43621;BME280;29213;50.770;7.298;2023-01-31T10:10:37;101603.31;;;4.73;55.66
43621;BME280;29213;50.770;7.298;2023-01-31T10:13:20;101491.25;;;3.96;55.32
43621;BME280;29213;50.770;7.298;2023-01-31T10:15:52;101514.28;;;4.07;54.91
43621;BME280;29213;50.770;7.298;2023-01-31T10:18:33;101567.22;;;4.31;55.57
43621;BME280;29213;50.770;7.298;2023-01-31T10:21:12;101604.97;;;4.61;56.11
43621;BME280;29213;50.770;7.298;2023-01-31T10:24:01;101594.34;;;5.16;60.63
43621;BME280;29213;50.770;7.298;2023-01-31T10:26:31;101593.69;;;5.90;58.50
43621;BME280;29213;50.770;7.298;2023-01-31T10:29:03;101596.50;;;6.13;56.97
43621;BME280;29213;50.770;7.298;2023-01-31T10:31:39;101568.91;;;6.04;55.09
43621;BME280;29213;50.770;7.298;2023-01-31T10:34:13;101579.75;;;5.88;53.77
43621;BME280;29213;50.770;7.298;2023-01-31T10:36:56;101563.06;;;5.74;54.46
43621;BME280;29213;50.770;7.298;2023-01-31T10:42:19;101584.00;;;5.65;53.34
43621;BME280;29213;50.770;7.298;2023-01-31T10:44:54;101550.50;;;5.39;57.08
43621;BME280;29213;50.770;7.298;2023-01-31T10:47:26;101578.50;;;5.81;54.75
43621;BME280;29213;50.770;7.298;2023-01-31T10:49:54;101514.81;;;5.46;53.79
43621;BME280;29213;50.770;7.298;2023-01-31T10:52:29;101576.69;;;5.81;55.11
43621;BME280;29213;50.770;7.298;2023-01-31T10:55:32;101562.81;;;5.91;54.18
43621;BME280;29213;50.770;7.298;2023-01-31T10:58:12;101480.56;;;5.19;53.65
43621;BME280;29213;50.770;7.298;2023-01-31T11:00:38;101491.22;;;5.30;53.63
43621;BME280;29213;50.770;7.298;2023-01-31T11:03:04;101545.53;;;5.60;54.60
43621;BME280;29213;50.770;7.298;2023-01-31T11:05:30;101503.38;;;5.33;54.40
43621;BME280;29213;50.770;7.298;2023-01-31T11:08:00;101519.44;;;5.43;54.70
43621;BME280;29213;50.770;7.298;2023-01-31T11:10:49;101508.13;;;5.28;55.12
43621;BME280;29213;50.770;7.298;2023-01-31T11:13:17;101465.25;;;5.24;55.63
43621;BME280;29213;50.770;7.298;2023-01-31T11:15:43;101500.50;;;5.49;55.78
43621;BME280;29213;50.770;7.298;2023-01-31T11:18:28;101506.75;;;5.48;55.75
43621;BME280;29213;50.770;7.298;2023-01-31T11:20:58;101462.28;;;5.29;55.54
43621;BME280;29213;50.770;7.298;2023-01-31T11:23:28;101472.28;;;5.49;55.37
43621;BME280;29213;50.770;7.298;2023-01-31T11:25:55;101446.94;;;5.34;55.77
43621;BME280;29213;50.770;7.298;2023-01-31T11:28:26;101455.28;;;5.41;56.45
43621;BME280;29213;50.770;7.298;2023-01-31T11:30:54;101442.28;;;5.38;55.55
43621;BME280;29213;50.770;7.298;2023-01-31T11:33:37;101459.53;;;5.43;55.85
43621;BME280;29213;50.770;7.298;2023-01-31T11:36:08;101455.47;;;5.51;56.21
43621;BME280;29213;50.770;7.298;2023-01-31T11:38:34;101457.06;;;5.53;55.71
43621;BME280;29213;50.770;7.298;2023-01-31T11:40:59;101392.06;;;5.13;56.00
43621;BME280;29213;50.770;7.298;2023-01-31T11:43:29;101430.78;;;5.39;56.14
43621;BME280;29213;50.770;7.298;2023-01-31T11:45:58;101420.63;;;5.45;56.37
43621;BME280;29213;50.770;7.298;2023-01-31T11:50:55;101429.59;;;5.43;56.44
43621;BME280;29213;50.770;7.298;2023-01-31T11:53:24;101430.53;;;5.55;57.20
43621;BME280;29213;50.770;7.298;2023-01-31T11:55:53;101421.19;;;5.62;56.16
43621;BME280;29213;50.770;7.298;2023-01-31T11:58:24;101317.72;;;4.93;56.08
43621;BME280;29213;50.770;7.298;2023-01-31T12:00:59;101340.03;;;5.27;56.66
43621;BME280;29213;50.770;7.298;2023-01-31T12:03:26;101347.69;;;5.43;56.10
43621;BME280;29213;50.770;7.298;2023-01-31T12:06:08;101394.56;;;5.65;56.16
43621;BME280;29213;50.770;7.298;2023-01-31T12:08:40;101355.00;;;5.39;55.68
43621;BME280;29213;50.770;7.298;2023-01-31T12:11:26;101384.59;;;5.69;55.75
43621;BME280;29213;50.770;7.298;2023-01-31T12:14:00;101326.69;;;5.41;55.54
43621;BME280;29213;50.770;7.298;2023-01-31T12:16:28;101365.16;;;5.70;55.83
43621;BME280;29213;50.770;7.298;2023-01-31T12:27:03;101337.88;;;5.69;54.83
43621;BME280;29213;50.770;7.298;2023-01-31T12:29:48;101322.41;;;5.52;54.60
43621;BME280;29213;50.770;7.298;2023-01-31T12:32:45;101334.13;;;5.60;53.96
43621;BME280;29213;50.770;7.298;2023-01-31T12:35:41;101373.75;;;5.85;54.41
43621;BME280;29213;50.770;7.298;2023-01-31T12:41:05;101318.91;;;5.27;54.11
43621;BME280;29213;50.770;7.298;2023-01-31T12:43:43;101367.78;;;5.70;54.47
43621;BME280;29213;50.770;7.298;2023-01-31T12:46:37;101330.22;;;5.29;53.62
43621;BME280;29213;50.770;7.298;2023-01-31T12:54:50;101377.47;;;5.58;53.84
43621;BME280;29213;50.770;7.298;2023-01-31T12:57:31;101316.81;;;5.19;54.33
43621;BME280;29213;50.770;7.298;2023-01-31T13:03:18;101351.72;;;5.48;54.17
43621;BME280;29213;50.770;7.298;2023-01-31T13:05:53;101348.50;;;5.56;53.82
43621;BME280;29213;50.770;7.298;2023-01-31T13:08:22;101376.56;;;5.70;53.90
43621;BME280;29213;50.770;7.298;2023-01-31T13:11:11;101323.59;;;5.47;54.37
43621;BME280;29213;50.770;7.298;2023-01-31T13:16:28;101367.47;;;5.74;54.39
43621;BME280;29213;50.770;7.298;2023-01-31T13:18:58;101322.50;;;5.63;54.16
43621;BME280;29213;50.770;7.298;2023-01-31T13:21:28;101241.41;;;5.15;54.31
43621;BME280;29213;50.770;7.298;2023-01-31T13:23:55;101359.34;;;5.89;54.40
43621;BME280;29213;50.770;7.298;2023-01-31T13:26:27;101213.09;;;4.92;54.45
43621;BME280;29213;50.770;7.298;2023-01-31T13:29:13;101352.41;;;5.99;54.24
43621;BME280;29213;50.770;7.298;2023-01-31T13:35:38;101339.91;;;6.01;54.47
43621;BME280;29213;50.770;7.298;2023-01-31T13:37:38;101308.47;;;5.74;54.32
43621;BME280;29213;50.770;7.298;2023-01-31T13:40:23;101256.53;;;5.13;55.32
43621;BME280;29213;50.770;7.298;2023-01-31T13:42:50;101229.00;;;5.04;55.09
43621;BME280;29213;50.770;7.298;2023-01-31T13:45:32;101338.03;;;5.79;55.30
43621;BME280;29213;50.770;7.298;2023-01-31T13:53:06;101183.63;;;4.61;55.47
43621;BME280;29213;50.770;7.298;2023-01-31T13:55:39;101204.31;;;4.92;55.37
43621;BME280;29213;50.770;7.298;2023-01-31T13:58:22;101352.47;;;5.86;55.60
43621;BME280;29213;50.770;7.298;2023-01-31T14:00:56;101346.69;;;5.81;56.09
43621;BME280;29213;50.770;7.298;2023-01-31T14:03:26;101349.84;;;5.86;56.44
43621;BME280;29213;50.770;7.298;2023-01-31T14:05:53;101352.38;;;5.88;57.22
43621;BME280;29213;50.770;7.298;2023-01-31T14:13:41;101354.97;;;6.01;56.71
43621;BME280;29213;50.770;7.298;2023-01-31T14:16:37;101345.19;;;6.01;57.35
43621;BME280;29213;50.770;7.298;2023-01-31T14:19:08;101121.63;;;4.55;57.96
43621;BME280;29213;50.770;7.298;2023-01-31T14:27:18;101256.03;;;5.56;57.74
43621;BME280;29213;50.770;7.298;2023-01-31T14:29:47;101349.66;;;6.01;59.50
43621;BME280;29213;50.770;7.298;2023-01-31T14:32:46;101305.09;;;5.72;61.03
43621;BME280;29213;50.770;7.298;2023-01-31T14:43:46;101317.34;;;6.09;62.11
43621;BME280;29213;50.770;7.298;2023-01-31T14:49:07;101367.41;;;6.35;60.43